Time;durP1;ratioP1;P1;durP2;ratioP2;P2;SDS_P1;SDS_P2;PMS_P1;PMS_P2;Temp;Humidity;BMP_temperature;BMP_pressure;BME280_temperature;BME280_humidity;BME280_pressure;Samples;Min_cycle;Max_cycle;Signal;HPM_P1;HPM_P2
2022/11/03 00:01:10;;;;;;;;;;;17.60;93.60;;;;;;5134630;28;19912;-43
2022/11/03 00:03:35;;;;;;;;;;;17.60;93.60;;;;;;5134566;28;19908;-46
2022/11/03 00:06:04;;;;;;;;;;;17.60;93.60;;;;;;5116177;28;19907;-45
2022/11/03 00:08:33;;;;;;;;;;;17.70;93.60;;;;;;5133926;28;19925;-43
2022/11/03 00:11:08;;;;;;;;;;;17.60;93.60;;;;;;5134324;28;19956;-43
2022/11/03 00:13:33;;;;;;;;;;;17.60;93.60;;;;;;5116746;27;19915;-44
2022/11/03 00:15:59;;;;;;;;;;;17.60;93.60;;;;;;5137921;27;20396;-45
2022/11/03 00:18:24;;;;;;;;;;;17.60;93.60;;;;;;5137846;27;19968;-43
2022/11/03 00:21:00;;;;;;;;;;;17.60;93.60;;;;;;5138059;27;20007;-44
2022/11/03 00:23:29;;;;;;;;;;;17.60;93.60;;;;;;5137936;27;19907;-43
2022/11/03 00:26:01;;;;;;;;;;;17.60;93.60;;;;;;5138281;27;19907;-46
2022/11/03 00:28:29;;;;;;;;;;;17.60;93.60;;;;;;5119595;27;20001;-44
2022/11/03 00:30:54;;;;;;;;;;;17.60;93.60;;;;;;5137522;27;19911;-45
2022/11/03 00:33:20;;;;;;;;;;;17.60;93.60;;;;;;5137542;27;19919;-50
2022/11/03 00:35:45;;;;;;;;;;;17.60;93.60;;;;;;5137763;27;19908;-44
2022/11/03 00:38:11;;;;;;;;;;;17.60;93.60;;;;;;5137495;27;19908;-46
2022/11/03 00:40:36;;;;;;;;;;;17.60;93.60;;;;;;5137766;27;19931;-44
2022/11/03 00:43:01;;;;;;;;;;;17.60;93.60;;;;;;5137853;27;19996;-45
2022/11/03 00:45:27;;;;;;;;;;;17.60;93.60;;;;;;5137286;27;20274;-46
2022/11/03 00:50:38;;;;;;;;;;;17.60;93.60;;;;;;5137229;27;19918;-44
2022/11/03 00:53:04;;;;;;;;;;;17.60;93.60;;;;;;5119162;27;19911;-44
2022/11/03 00:55:29;;;;;;;;;;;17.60;93.60;;;;;;5137419;27;19960;-46
2022/11/03 00:57:55;;;;;;;;;;;17.60;93.60;;;;;;5136340;27;19908;-45
2022/11/03 01:00:20;;;;;;;;;;;17.60;93.60;;;;;;5137257;27;19914;-43
2022/11/03 01:02:45;;;;;;;;;;;17.60;93.60;;;;;;5137173;27;20338;-43
2022/11/03 01:07:55;;;;;;;;;;;17.60;93.60;;;;;;5137011;27;19926;-44
2022/11/03 01:10:20;;;;;;;;;;;17.60;93.60;;;;;;5137059;27;20352;-44
2022/11/03 01:12:46;;;;;;;;;;;17.60;93.60;;;;;;5136770;27;19935;-43
2022/11/03 01:15:11;;;;;;;;;;;17.60;93.60;;;;;;5136956;27;19908;-44
2022/11/03 01:17:38;;;;;;;;;;;17.60;93.60;;;;;;5136705;27;19907;-44
2022/11/03 01:20:04;;;;;;;;;;;17.60;93.60;;;;;;5118655;27;19914;-45
2022/11/03 01:22:29;;;;;;;;;;;17.60;93.60;;;;;;5136895;27;19908;-44
2022/11/03 01:24:55;;;;;;;;;;;17.60;93.60;;;;;;5135630;27;20004;-44
2022/11/03 01:27:23;;;;;;;;;;;17.50;93.60;;;;;;5136233;27;20058;-44
2022/11/03 01:29:48;;;;;;;;;;;17.60;93.60;;;;;;5136425;27;19914;-45
2022/11/03 01:32:14;;;;;;;;;;;17.60;93.60;;;;;;5136536;27;19916;-44
2022/11/03 01:34:39;;;;;;;;;;;17.60;93.60;;;;;;5136648;27;19908;-43
2022/11/03 01:37:05;;;;;;;;;;;17.60;93.60;;;;;;5136669;27;19915;-43
2022/11/03 01:39:30;;;;;;;;;;;17.60;93.60;;;;;;5136477;27;19907;-48
2022/11/03 01:41:56;;;;;;;;;;;17.60;93.60;;;;;;5136766;27;19954;-46
2022/11/03 01:44:22;;;;;;;;;;;17.60;93.60;;;;;;5136217;27;19911;-44
2022/11/03 01:46:47;;;;;;;;;;;17.60;93.60;;;;;;5136338;27;19930;-43
2022/11/03 01:49:15;;;;;;;;;;;17.50;93.60;;;;;;5136072;27;19973;-44
2022/11/03 01:51:42;;;;;;;;;;;17.60;93.60;;;;;;5135924;27;19954;-44
2022/11/03 01:54:11;;;;;;;;;;;17.50;93.60;;;;;;5136345;27;19961;-43
2022/11/03 01:56:39;;;;;;;;;;;17.50;93.60;;;;;;5136244;27;19914;-44
2022/11/03 01:59:05;;;;;;;;;;;17.50;93.60;;;;;;5135770;27;20406;-45
2022/11/03 02:01:31;;;;;;;;;;;17.60;93.60;;;;;;5135884;27;19907;-44
2022/11/03 02:03:58;;;;;;;;;;;17.50;93.60;;;;;;5136087;27;19994;-45
2022/11/03 02:06:26;;;;;;;;;;;17.60;93.60;;;;;;5135738;27;19908;-44
2022/11/03 02:08:55;;;;;;;;;;;17.50;93.60;;;;;;5135463;27;19919;-44
2022/11/03 02:14:09;;;;;;;;;;;17.60;93.60;;;;;;5136069;27;20312;-44
2022/11/03 02:16:35;;;;;;;;;;;17.60;93.60;;;;;;5135892;27;19986;-46
2022/11/03 02:19:01;;;;;;;;;;;17.60;93.60;;;;;;5135882;27;19946;-44
2022/11/03 02:21:28;;;;;;;;;;;17.50;93.60;;;;;;5136105;27;19961;-43
2022/11/03 02:24:05;;;;;;;;;;;17.50;93.80;;;;;;5135424;27;19976;-43
2022/11/03 02:26:31;;;;;;;;;;;17.50;93.60;;;;;;5135703;27;19908;-43
2022/11/03 02:28:56;;;;;;;;;;;17.60;93.60;;;;;;5135635;27;19908;-43
2022/11/03 02:31:22;;;;;;;;;;;17.50;93.60;;;;;;5135484;27;20358;-46
2022/11/03 02:34:06;;;;;;;;;;;17.50;93.60;;;;;;5135559;27;20038;-46
2022/11/03 02:36:32;;;;;;;;;;;17.50;93.60;;;;;;5135058;27;20338;-43
2022/11/03 02:38:59;;;;;;;;;;;17.50;93.60;;;;;;5135193;27;19995;-44
2022/11/03 02:41:26;;;;;;;;;;;17.50;93.60;;;;;;5135142;27;20377;-44
2022/11/03 02:43:53;;;;;;;;;;;17.50;93.60;;;;;;5135057;27;19994;-44
2022/11/03 02:46:18;;;;;;;;;;;17.50;93.60;;;;;;5135698;27;19915;-47
2022/11/03 02:48:44;;;;;;;;;;;17.50;93.60;;;;;;5135079;27;19907;-43
2022/11/03 02:51:09;;;;;;;;;;;17.50;93.60;;;;;;5135326;27;20010;-45
2022/11/03 02:53:38;;;;;;;;;;;17.50;93.60;;;;;;5116883;27;19965;-44
2022/11/03 02:56:10;;;;;;;;;;;17.50;93.60;;;;;;5135237;27;19907;-46
2022/11/03 02:58:54;;;;;;;;;;;17.50;93.60;;;;;;5116784;28;19914;-45
2022/11/03 03:01:48;;;;;;;;;;;17.50;93.60;;;;;;5134902;28;20009;-45
2022/11/03 03:04:19;;;;;;;;;;;17.50;93.60;;;;;;5135184;28;19961;-44
2022/11/03 03:06:48;;;;;;;;;;;17.50;93.60;;;;;;5135225;28;19911;-43
2022/11/03 03:09:20;;;;;;;;;;;17.50;93.50;;;;;;5135501;28;19920;-44
2022/11/03 03:11:47;;;;;;;;;;;17.50;93.50;;;;;;5135027;28;19911;-44
2022/11/03 03:14:14;;;;;;;;;;;17.50;93.60;;;;;;5135394;28;19915;-44
2022/11/03 03:16:49;;;;;;;;;;;17.50;93.60;;;;;;5134827;28;19914;-43
2022/11/03 03:19:21;;;;;;;;;;;17.50;93.60;;;;;;5134728;28;19908;-45
2022/11/03 03:21:49;;;;;;;;;;;17.50;93.60;;;;;;5135375;28;19907;-46
2022/11/03 03:24:21;;;;;;;;;;;17.40;93.60;;;;;;5135041;28;19907;-43
2022/11/03 03:26:48;;;;;;;;;;;17.50;93.60;;;;;;5134652;28;19915;-45
2022/11/03 03:29:21;;;;;;;;;;;17.50;93.70;;;;;;5134920;28;20346;-43
2022/11/03 03:31:49;;;;;;;;;;;17.40;93.60;;;;;;5134536;28;19985;-44
2022/11/03 03:34:16;;;;;;;;;;;17.40;93.60;;;;;;5134959;28;19956;-44
2022/11/03 03:36:44;;;;;;;;;;;17.40;93.60;;;;;;5134561;28;20425;-45
2022/11/03 03:39:10;;;;;;;;;;;17.50;93.60;;;;;;5134508;28;19915;-45
2022/11/03 03:41:36;;;;;;;;;;;17.50;93.60;;;;;;5134887;28;20019;-48
2022/11/03 03:44:05;;;;;;;;;;;17.40;93.60;;;;;;5135165;28;20253;-44
2022/11/03 03:46:34;;;;;;;;;;;17.40;93.60;;;;;;5134490;28;20389;-45
2022/11/03 03:49:00;;;;;;;;;;;17.50;93.60;;;;;;5135875;27;19907;-46
2022/11/03 03:51:26;;;;;;;;;;;17.50;93.60;;;;;;5138647;27;19912;-45
2022/11/03 03:53:52;;;;;;;;;;;17.50;93.60;;;;;;5138588;27;20002;-43
2022/11/03 03:56:20;;;;;;;;;;;17.40;93.60;;;;;;5138597;27;19907;-44
2022/11/03 03:58:46;;;;;;;;;;;17.50;93.60;;;;;;5138308;27;20276;-47
2022/11/03 04:01:11;;;;;;;;;;;17.40;93.60;;;;;;5138202;27;20003;-44
2022/11/03 04:03:37;;;;;;;;;;;17.40;93.60;;;;;;5138553;27;19976;-45
2022/11/03 04:06:02;;;;;;;;;;;17.40;93.60;;;;;;5138353;27;19916;-44
2022/11/03 04:08:27;;;;;;;;;;;17.40;93.60;;;;;;5138285;27;20312;-44
2022/11/03 04:24:35;;;;;;;;;;;17.40;93.60;;;;;;5138106;27;20008;-43
2022/11/03 04:27:04;;;;;;;;;;;17.40;93.70;;;;;;5137712;27;20354;-44
2022/11/03 04:29:30;;;;;;;;;;;17.40;93.70;;;;;;5137849;27;19960;-43
2022/11/03 04:31:55;;;;;;;;;;;17.40;93.60;;;;;;5137809;27;20303;-43
2022/11/03 04:34:22;;;;;;;;;;;17.40;93.60;;;;;;5137818;27;19915;-47
2022/11/03 04:36:48;;;;;;;;;;;17.40;93.70;;;;;;5119366;27;19999;-45
2022/11/03 04:39:18;;;;;;;;;;;17.40;93.70;;;;;;5137484;27;19914;-45
2022/11/03 04:41:43;;;;;;;;;;;17.40;93.60;;;;;;5137240;27;20011;-46
2022/11/03 04:44:12;;;;;;;;;;;17.40;93.60;;;;;;5137329;27;19947;-45
2022/11/03 04:46:38;;;;;;;;;;;17.40;93.70;;;;;;5137541;27;19907;-44
2022/11/03 04:49:04;;;;;;;;;;;17.40;93.60;;;;;;5137508;27;19907;-47
2022/11/03 04:51:31;;;;;;;;;;;17.40;93.60;;;;;;5137045;27;19911;-47
2022/11/03 04:53:59;;;;;;;;;;;17.40;93.60;;;;;;5137097;27;19962;-43
2022/11/03 04:56:25;;;;;;;;;;;17.30;93.60;;;;;;5118920;27;19998;-44
2022/11/03 04:58:51;;;;;;;;;;;17.30;93.70;;;;;;5136872;27;19957;-44
2022/11/03 05:01:18;;;;;;;;;;;17.30;93.70;;;;;;5136498;27;19907;-44
2022/11/03 05:03:45;;;;;;;;;;;17.30;93.70;;;;;;5136941;27;20024;-45
2022/11/03 05:06:12;;;;;;;;;;;17.30;93.70;;;;;;5137209;27;19908;-45
2022/11/03 05:08:38;;;;;;;;;;;17.30;93.70;;;;;;5136984;27;20376;-43
2022/11/03 05:11:15;;;;;;;;;;;17.30;93.70;;;;;;5136951;27;19912;-44
2022/11/03 05:13:41;;;;;;;;;;;17.30;93.70;;;;;;5136962;27;19933;-45
2022/11/03 05:16:08;;;;;;;;;;;17.30;93.70;;;;;;5135674;27;20349;-43
2022/11/03 05:18:35;;;;;;;;;;;17.30;93.70;;;;;;5136868;27;20269;-48
2022/11/03 05:21:21;;;;;;;;;;;17.30;93.70;;;;;;5136882;27;19912;-44
2022/11/03 05:23:51;;;;;;;;;;;17.30;93.70;;;;;;5136522;27;19954;-44
2022/11/03 05:26:21;;;;;;;;;;;17.30;93.70;;;;;;5137024;27;19907;-44
2022/11/03 05:28:52;;;;;;;;;;;17.30;93.70;;;;;;5136714;27;19907;-43
2022/11/03 05:31:18;;;;;;;;;;;17.30;93.70;;;;;;5136661;27;19919;-44
2022/11/03 05:33:46;;;;;;;;;;;17.30;93.60;;;;;;5136687;27;19916;-44
2022/11/03 05:36:13;;;;;;;;;;;17.30;93.60;;;;;;5136351;27;19907;-45
2022/11/03 05:38:38;;;;;;;;;;;17.30;93.70;;;;;;5136773;27;19907;-45
2022/11/03 05:41:10;;;;;;;;;;;17.30;93.70;;;;;;5136359;27;19931;-46
2022/11/03 05:43:36;;;;;;;;;;;17.30;93.60;;;;;;5136524;27;19914;-45
2022/11/03 05:46:02;;;;;;;;;;;17.30;93.60;;;;;;5136232;27;19907;-46
2022/11/03 05:48:32;;;;;;;;;;;17.30;93.60;;;;;;5117796;27;20006;-44
2022/11/03 05:50:59;;;;;;;;;;;17.30;93.60;;;;;;5136121;27;19918;-45
2022/11/03 05:53:32;;;;;;;;;;;17.30;93.70;;;;;;5136034;27;19998;-46
2022/11/03 05:55:59;;;;;;;;;;;17.30;93.70;;;;;;5136069;27;20357;-44
2022/11/03 05:58:30;;;;;;;;;;;17.30;93.70;;;;;;5136117;27;20262;-44
2022/11/03 06:00:56;;;;;;;;;;;17.30;93.70;;;;;;5135770;27;20329;-45
2022/11/03 06:03:23;;;;;;;;;;;17.20;93.70;;;;;;5135992;27;20320;-44
2022/11/03 06:05:49;;;;;;;;;;;17.30;93.70;;;;;;5135993;27;19950;-44
2022/11/03 06:08:18;;;;;;;;;;;17.20;93.70;;;;;;5135623;27;20346;-44
2022/11/03 06:10:48;;;;;;;;;;;17.30;93.70;;;;;;5135237;27;19916;-46
2022/11/03 06:13:15;;;;;;;;;;;17.30;93.70;;;;;;5135504;27;19916;-47
2022/11/03 06:15:41;;;;;;;;;;;17.30;93.70;;;;;;5117301;27;19908;-43
2022/11/03 06:18:28;;;;;;;;;;;17.30;93.70;;;;;;5135275;27;19908;-45
2022/11/03 06:20:56;;;;;;;;;;;17.30;93.70;;;;;;5135625;27;19990;-45
2022/11/03 06:23:22;;;;;;;;;;;17.30;93.70;;;;;;5135564;27;19908;-46
2022/11/03 06:25:49;;;;;;;;;;;17.30;93.70;;;;;;5135410;27;20377;-44
2022/11/03 06:28:20;;;;;;;;;;;17.30;93.70;;;;;;5135097;27;19998;-44
2022/11/03 06:30:46;;;;;;;;;;;17.30;93.70;;;;;;5135160;27;20016;-46
2022/11/03 06:33:13;;;;;;;;;;;17.20;93.70;;;;;;5134989;27;20366;-43
2022/11/03 06:35:39;;;;;;;;;;;17.20;93.70;;;;;;5135285;27;19908;-44
2022/11/03 06:38:11;;;;;;;;;;;17.30;93.70;;;;;;5134867;27;19915;-43
2022/11/03 06:40:37;;;;;;;;;;;17.20;93.70;;;;;;5135020;27;19907;-45
2022/11/03 06:43:12;;;;;;;;;;;17.30;93.70;;;;;;5135045;27;19912;-46
2022/11/03 06:45:42;;;;;;;;;;;17.30;93.60;;;;;;5115866;27;20274;-44
2022/11/03 06:48:11;;;;;;;;;;;17.30;93.60;;;;;;5134367;27;19907;-43
2022/11/03 06:50:36;;;;;;;;;;;17.30;93.60;;;;;;5134686;27;20365;-45
2022/11/03 06:53:02;;;;;;;;;;;17.30;93.60;;;;;;5134779;27;19918;-48
2022/11/03 06:55:28;;;;;;;;;;;17.30;93.60;;;;;;5134825;27;19980;-47
2022/11/03 06:57:57;;;;;;;;;;;17.30;93.60;;;;;;5135087;27;19994;-44
2022/11/03 07:00:24;;;;;;;;;;;17.30;93.60;;;;;;5134846;27;20373;-46
2022/11/03 07:02:49;;;;;;;;;;;17.30;93.60;;;;;;5116432;28;19908;-46
2022/11/03 07:05:17;;;;;;;;;;;17.30;93.60;;;;;;5134427;28;19911;-46
2022/11/03 07:07:42;;;;;;;;;;;17.30;93.70;;;;;;5134224;28;19923;-46
2022/11/03 07:10:08;;;;;;;;;;;17.30;93.70;;;;;;5134589;28;19952;-46
2022/11/03 07:12:34;;;;;;;;;;;17.30;93.70;;;;;;5134917;28;20358;-47
2022/11/03 07:14:59;;;;;;;;;;;17.30;93.60;;;;;;5134851;28;19950;-44
2022/11/03 07:17:25;;;;;;;;;;;17.30;93.60;;;;;;5134262;28;20364;-45
2022/11/03 07:19:51;;;;;;;;;;;17.30;93.60;;;;;;5134624;28;19968;-44
2022/11/03 07:22:24;;;;;;;;;;;17.30;93.60;;;;;;5135034;27;19911;-45
2022/11/03 07:24:51;;;;;;;;;;;17.30;93.80;;;;;;5139090;27;19914;-43
2022/11/03 07:27:28;;;;;;;;;;;17.30;93.60;;;;;;5138696;27;20295;-43
2022/11/03 07:29:57;;;;;;;;;;;17.30;93.60;;;;;;5138739;27;19911;-47
2022/11/03 07:32:25;;;;;;;;;;;17.30;93.60;;;;;;5120197;27;19923;-45
2022/11/03 07:34:51;;;;;;;;;;;17.30;93.60;;;;;;5138157;27;19911;-45
2022/11/03 07:37:21;;;;;;;;;;;17.30;93.60;;;;;;5138111;27;19914;-45
2022/11/03 07:39:49;;;;;;;;;;;17.30;93.60;;;;;;5138810;27;20002;-44
2022/11/03 07:42:19;;;;;;;;;;;17.30;93.60;;;;;;5138262;27;20349;-45
2022/11/03 07:44:45;;;;;;;;;;;17.30;93.60;;;;;;5137950;27;19911;-45
2022/11/03 07:47:15;;;;;;;;;;;17.30;93.60;;;;;;5138356;27;19953;-44
2022/11/03 07:49:41;;;;;;;;;;;17.30;93.60;;;;;;5137882;27;19907;-43
2022/11/03 07:52:12;;;;;;;;;;;17.30;93.60;;;;;;5138220;27;19911;-44
2022/11/03 07:54:37;;;;;;;;;;;17.30;93.60;;;;;;5137944;27;19915;-47
2022/11/03 07:57:05;;;;;;;;;;;17.30;93.60;;;;;;5137699;27;19972;-46
2022/11/03 07:59:38;;;;;;;;;;;17.30;93.60;;;;;;5138245;27;19908;-46
2022/11/03 08:02:15;;;;;;;;;;;17.30;93.60;;;;;;5138106;27;19911;-46
2022/11/03 08:04:41;;;;;;;;;;;17.30;93.50;;;;;;5138101;27;19952;-47
2022/11/03 08:07:06;;;;;;;;;;;17.30;93.60;;;;;;5137617;27;20269;-45
2022/11/03 08:09:32;;;;;;;;;;;17.30;93.60;;;;;;5137705;27;20002;-44
2022/11/03 08:11:57;;;;;;;;;;;17.20;93.60;;;;;;5119583;27;19911;-44
2022/11/03 08:14:23;;;;;;;;;;;17.20;93.60;;;;;;5138101;27;19916;-45
2022/11/03 08:16:48;;;;;;;;;;;17.20;93.60;;;;;;5137519;27;19914;-46
2022/11/03 08:19:14;;;;;;;;;;;17.20;93.70;;;;;;5137349;27;19907;-44
2022/11/03 08:21:39;;;;;;;;;;;17.20;93.70;;;;;;5119358;27;20368;-43
2022/11/03 08:24:05;;;;;;;;;;;17.20;93.70;;;;;;5137475;27;19907;-44
2022/11/03 08:26:30;;;;;;;;;;;17.20;93.70;;;;;;5137703;27;20274;-46
2022/11/03 08:28:56;;;;;;;;;;;17.20;93.70;;;;;;5137672;27;19913;-45
2022/11/03 08:31:21;;;;;;;;;;;17.20;93.80;;;;;;5137631;27;20423;-46
2022/11/03 08:33:46;;;;;;;;;;;17.10;93.70;;;;;;5137128;27;19915;-44
2022/11/03 08:36:12;;;;;;;;;;;17.10;93.80;;;;;;5137009;27;19912;-43
2022/11/03 08:38:38;;;;;;;;;;;17.10;93.80;;;;;;5118995;27;19915;-48
2022/11/03 08:41:03;;;;;;;;;;;17.20;93.80;;;;;;5137740;27;19915;-44
2022/11/03 08:43:29;;;;;;;;;;;17.20;93.80;;;;;;5137419;27;19930;-43
2022/11/03 08:45:55;;;;;;;;;;;17.20;93.80;;;;;;5137176;27;19959;-44
2022/11/03 08:48:21;;;;;;;;;;;17.20;93.80;;;;;;5137295;27;19907;-44
2022/11/03 08:50:47;;;;;;;;;;;17.20;93.80;;;;;;5137260;27;20262;-47
2022/11/03 08:53:13;;;;;;;;;;;17.20;93.80;;;;;;5136716;27;20370;-45
2022/11/03 08:55:38;;;;;;;;;;;17.20;93.80;;;;;;5137229;27;19915;-43
2022/11/03 08:58:04;;;;;;;;;;;17.20;93.80;;;;;;5136760;27;19907;-44
2022/11/03 09:00:29;;;;;;;;;;;17.20;93.80;;;;;;5137228;27;20365;-45
2022/11/03 09:02:55;;;;;;;;;;;17.20;93.70;;;;;;5136990;27;19912;-46
2022/11/03 09:05:20;;;;;;;;;;;17.20;93.70;;;;;;5135803;27;20002;-47
2022/11/03 09:07:46;;;;;;;;;;;17.20;93.70;;;;;;5136615;27;19919;-46
2022/11/03 09:10:11;;;;;;;;;;;17.20;93.70;;;;;;5136620;27;20280;-44
2022/11/03 09:12:37;;;;;;;;;;;17.20;93.70;;;;;;5136936;27;19918;-44
2022/11/03 09:15:03;;;;;;;;;;;17.20;93.70;;;;;;5136429;27;19912;-44
2022/11/03 09:17:28;;;;;;;;;;;17.20;93.70;;;;;;5136355;27;20040;-45
2022/11/03 09:19:54;;;;;;;;;;;17.20;93.70;;;;;;5136614;27;19945;-44
2022/11/03 09:22:20;;;;;;;;;;;17.20;93.70;;;;;;5136704;27;19915;-47
2022/11/03 09:24:46;;;;;;;;;;;17.20;93.70;;;;;;5136723;27;20431;-44
2022/11/03 09:27:11;;;;;;;;;;;17.20;93.70;;;;;;5136363;27;19911;-46
2022/11/03 09:29:37;;;;;;;;;;;17.20;93.70;;;;;;5136751;27;19908;-46
2022/11/03 09:32:03;;;;;;;;;;;17.20;93.70;;;;;;5135016;27;19955;-44
2022/11/03 09:34:29;;;;;;;;;;;17.20;93.70;;;;;;5117902;27;19915;-45
2022/11/03 09:36:54;;;;;;;;;;;17.20;93.70;;;;;;5136101;27;20315;-44
2022/11/03 09:39:20;;;;;;;;;;;17.20;93.70;;;;;;5135754;27;19907;-45
2022/11/03 09:41:46;;;;;;;;;;;17.20;93.70;;;;;;5117638;27;19990;-45
2022/11/03 09:44:11;;;;;;;;;;;17.30;93.70;;;;;;5135868;27;19943;-47
2022/11/03 09:46:37;;;;;;;;;;;17.20;93.70;;;;;;5134466;27;19908;-44
2022/11/03 09:49:03;;;;;;;;;;;17.30;93.80;;;;;;5135640;27;19911;-46
2022/11/03 09:51:29;;;;;;;;;;;17.30;93.80;;;;;;5135905;27;19980;-46
2022/11/03 09:53:56;;;;;;;;;;;17.20;93.80;;;;;;5136109;27;20357;-46
2022/11/03 09:56:23;;;;;;;;;;;17.20;93.80;;;;;;5136044;27;19933;-44
2022/11/03 09:58:48;;;;;;;;;;;17.20;93.80;;;;;;5135652;27;19908;-44
2022/11/03 10:01:14;;;;;;;;;;;17.30;93.70;;;;;;5135737;27;19963;-46
2022/11/03 10:03:39;;;;;;;;;;;17.30;93.80;;;;;;5135822;27;20282;-44
2022/11/03 10:06:05;;;;;;;;;;;17.30;93.70;;;;;;5135712;27;19992;-45
2022/11/03 10:08:40;;;;;;;;;;;17.30;93.70;;;;;;5091156;28;20227;-45
2022/11/03 10:11:08;;;;;;;;;;;17.30;93.70;;;;;;5091080;28;20378;-44
2022/11/03 10:13:35;;;;;;;;;;;17.30;93.70;;;;;;5090938;28;20340;-43
2022/11/03 10:16:01;;;;;;;;;;;17.30;93.70;;;;;;5091070;28;19916;-45
2022/11/03 10:18:27;;;;;;;;;;;17.30;93.70;;;;;;5091240;28;19919;-48
2022/11/03 10:20:53;;;;;;;;;;;17.30;93.70;;;;;;5090815;28;20287;-43
2022/11/03 10:23:18;;;;;;;;;;;17.30;93.70;;;;;;5090860;28;19909;-44
2022/11/03 10:25:44;;;;;;;;;;;17.30;93.70;;;;;;5090962;28;19915;-44
2022/11/03 10:28:15;;;;;;;;;;;17.30;93.70;;;;;;5090462;28;19920;-44
2022/11/03 10:30:47;;;;;;;;;;;17.30;93.70;;;;;;5089896;28;20283;-43
2022/11/03 10:33:32;;;;;;;;;;;17.30;93.70;;;;;;5091295;28;19908;-45
2022/11/03 10:35:59;;;;;;;;;;;17.30;93.70;;;;;;5090806;28;19916;-45
2022/11/03 10:38:31;;;;;;;;;;;17.30;93.70;;;;;;5090983;28;19908;-47
2022/11/03 10:41:16;;;;;;;;;;;17.30;93.70;;;;;;5090432;28;19909;-46
2022/11/03 10:43:43;;;;;;;;;;;17.30;93.70;;;;;;5090560;28;20343;-44
2022/11/03 10:46:19;;;;;;;;;;;17.30;93.70;;;;;;5090409;28;19916;-44
2022/11/03 10:48:59;;;;;;;;;;;17.30;93.70;;;;;;5089223;28;19967;-44
2022/11/03 10:51:25;;;;;;;;;;;17.30;93.60;;;;;;5090521;28;19908;-44
2022/11/03 10:53:50;;;;;;;;;;;17.30;93.60;;;;;;5090627;28;19931;-45
2022/11/03 10:56:16;;;;;;;;;;;17.30;93.60;;;;;;5090639;28;19908;-45
2022/11/03 10:58:41;;;;;;;;;;;17.30;93.60;;;;;;5090536;28;19915;-45
2022/11/03 11:01:08;;;;;;;;;;;17.30;93.60;;;;;;5090516;28;19935;-45
2022/11/03 11:03:38;;;;;;;;;;;17.30;93.60;;;;;;5090768;28;20271;-45
2022/11/03 11:06:04;;;;;;;;;;;17.30;93.60;;;;;;5089751;28;20325;-48
2022/11/03 11:08:30;;;;;;;;;;;17.30;93.60;;;;;;5109626;28;19924;-45
2022/11/03 11:10:55;;;;;;;;;;;17.30;93.60;;;;;;5109984;28;19926;-43
2022/11/03 11:13:20;;;;;;;;;;;17.30;93.60;;;;;;5110011;28;19908;-46
2022/11/03 11:15:47;;;;;;;;;;;17.30;93.60;;;;;;5110752;28;19908;-44
2022/11/03 11:18:28;;;;;;;;;;;17.30;93.60;;;;;;5088408;28;19908;-46
2022/11/03 11:20:54;;;;;;;;;;;17.30;93.60;;;;;;5096790;28;20256;-44
2022/11/03 11:23:26;;;;;;;;;;;17.30;93.60;;;;;;5096559;28;20374;-47
2022/11/03 11:26:03;;;;;;;;;;;17.30;93.60;;;;;;5096471;28;19961;-46
2022/11/03 11:28:29;;;;;;;;;;;17.30;93.60;;;;;;5096352;28;19935;-45
2022/11/03 11:30:55;;;;;;;;;;;17.30;93.60;;;;;;5096028;28;20263;-44
2022/11/03 11:33:22;;;;;;;;;;;17.30;93.60;;;;;;5096211;28;20351;-45
2022/11/03 11:35:47;;;;;;;;;;;17.30;93.60;;;;;;5096496;28;19908;-46
2022/11/03 11:38:31;;;;;;;;;;;17.40;93.60;;;;;;5096293;28;20374;-47
2022/11/03 11:40:57;;;;;;;;;;;17.30;93.60;;;;;;5096033;28;20358;-45
2022/11/03 11:43:24;;;;;;;;;;;17.30;93.60;;;;;;5096507;28;19915;-47
2022/11/03 11:46:08;;;;;;;;;;;17.30;93.60;;;;;;5096114;28;20011;-44
2022/11/03 11:48:34;;;;;;;;;;;17.30;93.60;;;;;;5096129;28;20015;-48
2022/11/03 11:51:00;;;;;;;;;;;17.30;93.60;;;;;;5077776;28;20418;-46
2022/11/03 11:53:26;;;;;;;;;;;17.30;93.60;;;;;;5096152;28;19931;-46
2022/11/03 11:56:01;;;;;;;;;;;17.40;93.60;;;;;;5096094;28;19912;-47
2022/11/03 11:58:39;;;;;;;;;;;17.30;93.60;;;;;;5095631;28;20311;-44
2022/11/03 12:01:23;;;;;;;;;;;17.30;93.60;;;;;;5077837;28;19908;-48
2022/11/03 12:03:50;;;;;;;;;;;17.30;93.60;;;;;;5095655;28;19908;-47
2022/11/03 12:06:16;;;;;;;;;;;17.30;93.60;;;;;;5095667;28;20315;-47
2022/11/03 12:08:42;;;;;;;;;;;17.30;93.60;;;;;;5095414;28;19994;-44
2022/11/03 12:11:09;;;;;;;;;;;17.30;93.60;;;;;;5095810;28;20278;-46
2022/11/03 12:13:43;;;;;;;;;;;17.30;93.60;;;;;;5095913;28;19912;-47
2022/11/03 12:16:09;;;;;;;;;;;17.30;93.60;;;;;;5095555;28;19908;-46
2022/11/03 12:18:36;;;;;;;;;;;17.40;93.60;;;;;;5095203;28;19908;-45
2022/11/03 12:21:02;;;;;;;;;;;17.30;93.60;;;;;;5095451;28;19930;-46
2022/11/03 12:23:35;;;;;;;;;;;17.30;93.60;;;;;;5095424;28;19909;-47
2022/11/03 12:26:01;;;;;;;;;;;17.30;93.60;;;;;;5095124;28;19912;-45
2022/11/03 12:28:33;;;;;;;;;;;17.30;93.60;;;;;;5094905;28;20294;-44
2022/11/03 12:30:59;;;;;;;;;;;17.30;93.60;;;;;;5094197;28;19912;-47
2022/11/03 12:33:25;;;;;;;;;;;17.30;93.60;;;;;;5095314;28;19908;-47
2022/11/03 12:35:51;;;;;;;;;;;17.30;93.60;;;;;;5095217;28;19908;-48
2022/11/03 12:38:16;;;;;;;;;;;17.30;93.60;;;;;;5095353;28;19908;-44
2022/11/03 12:40:41;;;;;;;;;;;17.40;93.60;;;;;;5095455;28;20343;-45
2022/11/03 12:43:07;;;;;;;;;;;17.30;93.60;;;;;;5095297;28;19908;-45
2022/11/03 12:45:32;;;;;;;;;;;17.30;93.60;;;;;;5095124;28;19953;-43
2022/11/03 12:47:58;;;;;;;;;;;17.40;93.60;;;;;;5095109;28;19912;-46
2022/11/03 12:50:23;;;;;;;;;;;17.30;93.50;;;;;;5095174;28;19919;-44
2022/11/03 12:52:49;;;;;;;;;;;17.30;93.50;;;;;;5094841;28;19915;-44
2022/11/03 12:55:14;;;;;;;;;;;17.30;93.50;;;;;;5094806;28;19908;-45
2022/11/03 12:57:40;;;;;;;;;;;17.40;93.50;;;;;;5094734;28;20010;-46
2022/11/03 13:00:05;;;;;;;;;;;17.30;93.50;;;;;;5094349;28;19987;-45
2022/11/03 13:02:31;;;;;;;;;;;17.30;93.80;;;;;;5095280;28;19922;-44
2022/11/03 13:04:56;;;;;;;;;;;17.30;93.50;;;;;;5094534;28;19908;-45
2022/11/03 13:07:22;;;;;;;;;;;17.30;93.50;;;;;;5094312;28;19965;-45
2022/11/03 13:09:47;;;;;;;;;;;17.30;93.50;;;;;;5094363;28;19908;-45
2022/11/03 13:12:31;;;;;;;;;;;17.30;93.50;;;;;;5094243;28;19936;-47
2022/11/03 13:15:00;;;;;;;;;;;17.30;93.50;;;;;;5076386;28;19912;-47
2022/11/03 13:17:26;;;;;;;;;;;17.30;93.50;;;;;;5094513;28;20043;-46
2022/11/03 13:19:52;;;;;;;;;;;17.30;93.50;;;;;;5076449;28;19908;-44
2022/11/03 13:22:17;;;;;;;;;;;17.30;93.50;;;;;;5094416;28;20335;-44
2022/11/03 13:24:42;;;;;;;;;;;17.30;93.50;;;;;;5094561;28;19909;-45
2022/11/03 13:27:08;;;;;;;;;;;17.30;93.50;;;;;;5076218;28;20377;-49
2022/11/03 13:29:33;;;;;;;;;;;17.30;93.50;;;;;;5094280;28;19908;-43
2022/11/03 13:31:59;;;;;;;;;;;17.30;93.50;;;;;;5094252;28;19912;-44
2022/11/03 13:34:24;;;;;;;;;;;17.30;93.50;;;;;;5093882;28;19908;-45
2022/11/03 13:36:50;;;;;;;;;;;17.30;93.50;;;;;;5093969;28;19909;-46
2022/11/03 13:39:15;;;;;;;;;;;17.30;93.50;;;;;;5093894;28;20291;-43
2022/11/03 13:41:41;;;;;;;;;;;17.30;93.50;;;;;;5093908;28;19909;-43
2022/11/03 13:44:07;;;;;;;;;;;17.30;93.50;;;;;;5075897;28;19958;-45
2022/11/03 13:46:33;;;;;;;;;;;17.30;93.50;;;;;;5093635;28;19934;-46
2022/11/03 13:48:59;;;;;;;;;;;17.30;93.50;;;;;;5094195;28;19912;-47
2022/11/03 13:51:24;;;;;;;;;;;17.30;93.50;;;;;;5075684;28;20301;-45
2022/11/03 13:53:50;;;;;;;;;;;17.30;93.50;;;;;;5093653;28;19921;-46
2022/11/03 13:56:15;;;;;;;;;;;17.30;93.50;;;;;;5093479;28;19955;-46
2022/11/03 13:58:41;;;;;;;;;;;17.30;93.50;;;;;;5093467;28;19908;-46
2022/11/03 14:01:06;;;;;;;;;;;17.30;93.50;;;;;;5093591;28;19908;-48
2022/11/03 14:03:31;;;;;;;;;;;17.30;93.50;;;;;;5094038;28;19931;-44
2022/11/03 14:05:57;;;;;;;;;;;17.30;93.50;;;;;;5093750;28;19996;-46
2022/11/03 14:08:22;;;;;;;;;;;17.30;93.50;;;;;;5093659;28;19920;-44
2022/11/03 14:10:48;;;;;;;;;;;17.30;93.50;;;;;;5094260;28;19915;-46
2022/11/03 14:13:13;;;;;;;;;;;17.30;93.50;;;;;;5093680;28;19912;-43
2022/11/03 14:15:39;;;;;;;;;;;17.30;93.50;;;;;;5093519;28;20447;-44
2022/11/03 14:18:05;;;;;;;;;;;17.30;93.50;;;;;;5093712;28;19908;-44
2022/11/03 14:20:31;;;;;;;;;;;17.30;93.50;;;;;;5093483;28;20278;-43
2022/11/03 14:22:56;;;;;;;;;;;17.30;93.50;;;;;;5093949;28;19995;-44
2022/11/03 14:25:22;;;;;;;;;;;17.30;93.40;;;;;;5075437;28;19908;-47
2022/11/03 14:27:47;;;;;;;;;;;17.30;93.50;;;;;;5093629;28;19960;-45
2022/11/03 14:30:13;;;;;;;;;;;17.30;93.50;;;;;;5093780;28;19908;-45
2022/11/03 14:32:38;;;;;;;;;;;17.30;93.40;;;;;;5093807;28;20042;-46
2022/11/03 14:35:04;;;;;;;;;;;17.30;93.40;;;;;;5093409;28;19908;-43
2022/11/03 14:37:29;;;;;;;;;;;17.30;93.40;;;;;;5093261;28;19999;-44
2022/11/03 14:39:55;;;;;;;;;;;17.30;93.40;;;;;;5093450;28;20374;-47